Time;durP1;ratioP1;P1;durP2;ratioP2;P2;SDS_P1;SDS_P2;PMS_P1;PMS_P2;Temp;Humidity;BMP_temperature;BMP_pressure;BME280_temperature;BME280_humidity;BME280_pressure;Samples;Min_cycle;Max_cycle;Signal;HPM_P1;HPM_P2
2021/10/20 00:01:12;;;;;;;6.80;4.95;;;24.00;41.50;;;;;;6147425;28;81995;-63
2021/10/20 00:04:13;;;;;;;8.27;4.93;;;24.00;41.90;;;;;;6155984;28;81248;-63
2021/10/20 00:07:13;;;;;;;7.10;4.68;;;24.00;41.70;;;;;;6145961;28;81611;-63
2021/10/20 00:10:14;;;;;;;7.55;4.90;;;24.10;41.80;;;;;;6149823;28;83054;-63
2021/10/20 00:13:14;;;;;;;7.30;5.03;;;24.00;41.50;;;;;;6145218;28;80432;-63
2021/10/20 00:16:15;;;;;;;6.45;4.80;;;24.00;41.50;;;;;;6142212;28;80889;-63
2021/10/20 00:19:15;;;;;;;6.35;4.90;;;24.00;41.60;;;;;;6144547;28;80348;-63
2021/10/20 00:22:16;;;;;;;10.18;4.60;;;24.00;41.50;;;;;;6148654;28;81343;-63
2021/10/20 00:25:16;;;;;;;6.70;4.45;;;24.00;41.50;;;;;;6140781;28;81550;-63
2021/10/20 00:28:17;;;;;;;8.15;3.88;;;24.00;41.80;;;;;;6152459;28;80824;-62
2021/10/20 00:31:17;;;;;;;6.03;4.25;;;24.00;41.50;;;;;;6151938;28;81021;-62
2021/10/20 00:34:18;;;;;;;6.40;4.15;;;23.90;41.50;;;;;;6155563;28;80919;-62
2021/10/20 00:37:18;;;;;;;6.28;4.10;;;24.00;41.50;;;;;;6134626;28;80872;-63
2021/10/20 00:40:19;;;;;;;4.57;3.55;;;23.90;41.40;;;;;;6139403;28;86404;-64
2021/10/20 00:43:20;;;;;;;7.25;3.80;;;23.90;41.40;;;;;;6151553;28;80391;-63
2021/10/20 00:46:20;;;;;;;8.52;4.50;;;23.90;41.70;;;;;;6139913;28;80515;-64
2021/10/20 00:49:21;;;;;;;5.38;3.80;;;23.90;41.60;;;;;;6149832;28;81393;-64
2021/10/20 00:52:21;;;;;;;8.85;3.90;;;23.90;41.60;;;;;;6146951;28;80526;-63
2021/10/20 00:55:22;;;;;;;5.32;3.35;;;23.90;41.60;;;;;;6138303;28;81438;-62
2021/10/20 00:58:22;;;;;;;5.63;3.38;;;23.80;41.80;;;;;;6138623;28;81927;-62
2021/10/20 01:01:23;;;;;;;5.55;3.67;;;23.90;41.90;;;;;;6140061;28;81502;-63
2021/10/20 01:04:23;;;;;;;3.85;3.10;;;23.80;41.60;;;;;;6155256;28;80521;-63
2021/10/20 01:07:24;;;;;;;5.60;3.60;;;23.80;41.50;;;;;;6145329;28;81548;-63
2021/10/20 01:10:24;;;;;;;6.47;3.85;;;23.80;41.60;;;;;;6147916;28;82670;-63
2021/10/20 01:13:25;;;;;;;4.28;3.35;;;23.80;41.60;;;;;;6138678;28;80222;-64
2021/10/20 01:16:25;;;;;;;6.25;2.92;;;23.80;41.90;;;;;;6140207;28;80593;-64
2021/10/20 01:19:26;;;;;;;6.10;3.58;;;23.80;41.70;;;;;;6146915;28;81513;-63
2021/10/20 01:22:26;;;;;;;6.40;3.00;;;23.80;41.60;;;;;;6149988;28;80503;-63
2021/10/20 01:25:27;;;;;;;3.67;3.08;;;23.80;41.80;;;;;;6144732;28;81359;-63
2021/10/20 01:28:27;;;;;;;3.70;2.95;;;23.80;41.70;;;;;;6147711;28;80342;-63
2021/10/20 01:31:28;;;;;;;3.50;2.72;;;23.80;41.70;;;;;;6150474;28;80373;-63
2021/10/20 01:34:28;;;;;;;4.80;3.40;;;23.80;41.70;;;;;;6146310;28;81339;-63
2021/10/20 01:37:29;;;;;;;4.40;2.88;;;23.80;42.50;;;;;;6149962;28;80602;-63
2021/10/20 01:40:29;;;;;;;4.00;2.60;;;23.80;41.80;;;;;;6138220;28;80556;-63
2021/10/20 01:43:30;;;;;;;7.13;3.30;;;23.80;41.90;;;;;;6140740;28;81281;-63
2021/10/20 01:46:30;;;;;;;14.98;2.95;;;23.80;42.10;;;;;;6140130;28;81153;-63
2021/10/20 01:49:31;;;;;;;4.28;3.08;;;23.80;41.80;;;;;;6143705;28;80237;-63
2021/10/20 01:52:31;;;;;;;4.07;2.95;;;23.80;41.80;;;;;;6140621;28;80886;-63
2021/10/20 01:55:32;;;;;;;3.65;2.90;;;23.80;41.90;;;;;;6150134;28;82035;-63
2021/10/20 01:58:32;;;;;;;3.78;2.70;;;23.80;41.90;;;;;;6143136;28;81407;-62
2021/10/20 02:01:33;;;;;;;3.88;2.90;;;23.80;41.90;;;;;;6136678;28;83172;-62
2021/10/20 02:04:34;;;;;;;3.33;2.55;;;23.80;42.10;;;;;;6142630;28;87195;-62
2021/10/20 02:07:34;;;;;;;4.32;2.50;;;23.80;42.00;;;;;;6137637;28;80190;-62
2021/10/20 02:10:35;;;;;;;5.60;3.83;;;23.70;42.00;;;;;;6142614;28;80404;-62
2021/10/20 02:13:35;;;;;;;4.13;2.67;;;23.70;42.10;;;;;;6142654;28;80391;-62
2021/10/20 02:16:36;;;;;;;3.78;3.05;;;23.80;42.10;;;;;;6148153;28;81609;-62
2021/10/20 02:19:40;;;;;;;4.55;2.95;;;23.80;42.00;;;;;;6148622;28;80418;-62
2021/10/20 02:22:41;;;;;;;3.85;2.72;;;23.80;42.00;;;;;;6152214;28;80961;-62
2021/10/20 02:25:41;;;;;;;4.82;3.00;;;23.70;41.80;;;;;;6153357;28;80490;-62
2021/10/20 02:28:42;;;;;;;4.25;2.28;;;23.70;41.90;;;;;;6140122;28;80527;-62
2021/10/20 02:31:46;;;;;;;3.85;2.85;;;23.80;41.90;;;;;;6152809;28;80518;-63
2021/10/20 02:34:47;;;;;;;3.45;2.63;;;23.80;42.20;;;;;;6146631;28;81619;-62
2021/10/20 02:37:48;;;;;;;3.03;2.72;;;23.80;42.10;;;;;;6143110;28;80334;-62
2021/10/20 02:40:48;;;;;;;3.47;2.47;;;23.70;42.10;;;;;;6137444;28;80397;-62
2021/10/20 02:43:49;;;;;;;3.33;2.60;;;23.70;42.00;;;;;;6142951;28;80707;-62
2021/10/20 02:46:49;;;;;;;3.83;2.65;;;23.70;42.00;;;;;;6144121;28;80219;-62
2021/10/20 02:49:50;;;;;;;2.63;2.33;;;23.70;42.00;;;;;;6140465;28;80270;-62
2021/10/20 02:52:50;;;;;;;2.95;2.65;;;23.70;41.90;;;;;;6149105;28;80134;-62
2021/10/20 02:55:51;;;;;;;3.78;3.00;;;23.70;42.10;;;;;;6145551;28;80644;-65
2021/10/20 02:58:51;;;;;;;4.18;2.70;;;23.70;42.20;;;;;;6138550;28;80463;-64
2021/10/20 03:01:52;;;;;;;3.40;2.10;;;23.70;42.10;;;;;;6135165;28;80404;-64
2021/10/20 03:04:52;;;;;;;3.72;2.72;;;23.70;42.40;;;;;;6148125;28;80696;-64
2021/10/20 03:07:54;;;;;;;3.40;2.50;;;23.80;42.20;;;;;;6146740;28;81616;-64
2021/10/20 03:10:54;;;;;;;3.45;2.58;;;23.70;42.10;;;;;;6139880;28;83206;-64
2021/10/20 03:13:56;;;;;;;4.20;2.50;;;23.80;42.20;;;;;;6141069;28;81663;-64
2021/10/20 03:16:57;;;;;;;4.63;2.70;;;23.70;42.00;;;;;;6136743;28;80539;-64
2021/10/20 03:19:57;;;;;;;3.97;2.70;;;23.80;42.10;;;;;;6147876;28;81804;-64
2021/10/20 03:22:58;;;;;;;3.20;2.55;;;23.70;42.10;;;;;;6145171;28;81436;-64
2021/10/20 03:25:58;;;;;;;3.63;2.60;;;23.80;42.40;;;;;;6144979;28;83602;-64
2021/10/20 03:28:59;;;;;;;3.28;2.50;;;23.80;42.30;;;;;;6145463;28;80415;-64
2021/10/20 03:31:59;;;;;;;3.15;2.60;;;23.80;42.40;;;;;;6137346;28;80689;-64
2021/10/20 03:35:00;;;;;;;4.30;2.97;;;23.80;42.20;;;;;;6152080;28;80472;-65
2021/10/20 03:38:00;;;;;;;3.00;2.60;;;23.80;42.50;;;;;;6148365;28;80623;-64
2021/10/20 03:41:01;;;;;;;3.50;2.75;;;23.80;42.20;;;;;;6143326;28;80340;-64
2021/10/20 03:44:01;;;;;;;3.53;2.45;;;23.80;42.40;;;;;;6142632;28;81539;-64
2021/10/20 03:47:02;;;;;;;2.97;2.60;;;23.80;42.30;;;;;;6151130;28;80570;-68
2021/10/20 03:50:02;;;;;;;5.03;2.90;;;23.80;42.70;;;;;;6146970;28;80287;-68
2021/10/20 03:53:03;;;;;;;6.30;2.70;;;23.80;44.10;;;;;;6144312;28;80793;-64
2021/10/20 03:56:03;;;;;;;3.95;2.80;;;23.80;43.60;;;;;;6149233;28;82974;-63
2021/10/20 03:59:04;;;;;;;5.15;2.47;;;23.90;43.70;;;;;;6141284;28;80830;-63
2021/10/20 04:02:04;;;;;;;3.05;2.47;;;23.90;44.00;;;;;;6140512;28;81769;-62
2021/10/20 04:05:05;;;;;;;4.45;2.63;;;24.00;44.10;;;;;;6142482;28;80822;-62
2021/10/20 04:08:05;;;;;;;3.75;2.75;;;24.00;44.40;;;;;;6139681;28;82604;-64
2021/10/20 04:11:06;;;;;;;8.30;3.28;;;24.00;44.20;;;;;;6147108;28;81006;-63
2021/10/20 04:14:06;;;;;;;13.13;4.80;;;24.00;44.10;;;;;;6136193;28;80553;-64
2021/10/20 04:17:07;;;;;;;10.35;4.10;;;24.00;44.50;;;;;;6140784;28;80632;-64
2021/10/20 04:20:07;;;;;;;12.88;4.05;;;24.00;44.30;;;;;;6144942;28;81283;-63
2021/10/20 04:23:08;;;;;;;12.88;4.45;;;24.10;44.30;;;;;;6140292;28;81507;-65
2021/10/20 04:26:08;;;;;;;14.15;5.15;;;24.10;44.50;;;;;;6138216;28;81615;-63
2021/10/20 04:29:09;;;;;;;14.60;4.68;;;24.10;44.60;;;;;;6142209;28;81515;-64
2021/10/20 04:32:09;;;;;;;9.68;4.07;;;24.10;44.80;;;;;;6142302;28;80433;-64
2021/10/20 04:35:10;;;;;;;11.10;4.45;;;24.10;44.70;;;;;;6148427;28;80361;-63
2021/10/20 04:38:10;;;;;;;11.00;4.28;;;24.10;45.10;;;;;;6141214;28;80157;-64
2021/10/20 04:41:11;;;;;;;6.75;3.28;;;24.10;45.20;;;;;;6138046;28;80774;-62
2021/10/20 04:44:11;;;;;;;7.82;3.33;;;24.10;45.70;;;;;;6142655;28;81589;-62
2021/10/20 04:47:12;;;;;;;10.40;4.30;;;24.10;45.80;;;;;;6153923;28;81905;-62
2021/10/20 04:50:12;;;;;;;10.07;3.60;;;24.20;46.10;;;;;;6152469;28;81360;-63
2021/10/20 04:53:13;;;;;;;9.70;4.18;;;24.30;46.00;;;;;;6147113;28;80910;-63
2021/10/20 04:56:13;;;;;;;6.57;3.78;;;24.20;46.10;;;;;;6144132;28;81406;-62
2021/10/20 04:59:14;;;;;;;9.63;3.20;;;24.30;46.10;;;;;;6144698;28;81652;-62
2021/10/20 05:02:14;;;;;;;6.85;3.42;;;24.30;46.20;;;;;;6153140;28;80928;-65
2021/10/20 05:05:15;;;;;;;9.95;3.90;;;24.30;46.40;;;;;;6146854;28;80587;-63
2021/10/20 05:08:16;;;;;;;6.40;3.53;;;24.30;45.60;;;;;;6138861;28;80169;-64
2021/10/20 05:11:16;;;;;;;6.03;2.95;;;24.30;45.40;;;;;;6150125;28;80821;-65
2021/10/20 05:14:17;;;;;;;8.80;3.75;;;24.30;45.60;;;;;;6140687;28;80547;-64
2021/10/20 05:17:17;;;;;;;6.30;3.20;;;24.30;45.70;;;;;;6149902;28;80452;-65
2021/10/20 05:20:18;;;;;;;11.38;4.15;;;24.30;46.00;;;;;;6143159;28;82416;-63
2021/10/20 05:23:20;;;;;;;7.25;3.47;;;24.30;45.70;;;;;;6150474;28;80781;-64
2021/10/20 05:26:23;;;;;;;6.23;3.87;;;24.30;46.00;;;;;;6142557;28;81520;-64
2021/10/20 05:29:24;;;;;;;7.07;3.92;;;24.30;45.90;;;;;;6143377;28;83939;-64
2021/10/20 05:32:24;;;;;;;11.65;3.28;;;24.30;46.30;;;;;;6148567;28;80813;-64
2021/10/20 05:35:25;;;;;;;7.18;3.40;;;24.30;46.40;;;;;;6142771;28;80853;-64
2021/10/20 05:38:25;;;;;;;8.38;3.28;;;24.30;46.30;;;;;;6139007;28;81145;-63
2021/10/20 05:41:26;;;;;;;9.88;3.75;;;24.30;46.90;;;;;;6143395;28;81225;-63
2021/10/20 05:44:26;;;;;;;5.38;3.20;;;24.30;47.20;;;;;;6141408;28;80397;-63
2021/10/20 05:47:27;;;;;;;11.35;3.95;;;24.30;46.80;;;;;;6141805;28;80784;-65
2021/10/20 05:50:27;;;;;;;8.70;3.60;;;24.30;46.80;;;;;;6141511;28;80409;-64
2021/10/20 05:53:28;;;;;;;8.90;3.63;;;24.30;46.90;;;;;;6151234;28;80961;-62
2021/10/20 05:56:28;;;;;;;5.22;3.10;;;24.30;47.00;;;;;;6138541;28;80459;-63
2021/10/20 05:59:29;;;;;;;6.03;3.53;;;24.30;46.90;;;;;;6154506;28;80592;-64
2021/10/20 06:02:29;;;;;;;6.40;3.45;;;24.30;46.10;;;;;;6149388;28;81865;-63
2021/10/20 06:05:30;;;;;;;6.53;2.85;;;24.10;45.40;;;;;;6143851;28;80770;-62
2021/10/20 06:08:30;;;;;;;6.65;3.15;;;24.10;45.50;;;;;;6148399;28;80718;-62
2021/10/20 06:11:32;;;;;;;5.07;3.50;;;24.10;44.90;;;;;;6152173;28;82185;-63
2021/10/20 06:14:33;;;;;;;4.85;3.22;;;23.90;44.30;;;;;;6150019;28;81528;-64
2021/10/20 06:17:33;;;;;;;4.97;3.17;;;23.60;44.70;;;;;;6154602;28;80742;-64
2021/10/20 06:20:34;;;;;;;8.20;3.15;;;23.60;44.80;;;;;;6150452;28;84266;-64
2021/10/20 06:23:34;;;;;;;4.97;3.35;;;23.40;44.80;;;;;;6149905;28;80405;-64
2021/10/20 06:26:35;;;;;;;5.97;3.80;;;23.40;44.80;;;;;;6150923;28;81411;-64
2021/10/20 06:29:35;;;;;;;5.63;3.45;;;23.10;45.00;;;;;;6146735;28;80364;-64
2021/10/20 06:32:36;;;;;;;4.00;3.08;;;22.70;45.80;;;;;;6142029;28;80643;-65
2021/10/20 06:35:37;;;;;;;5.78;3.65;;;22.50;46.60;;;;;;6147456;28;80485;-64
2021/10/20 06:38:39;;;;;;;7.32;3.83;;;22.40;46.60;;;;;;6153938;28;80481;-63
2021/10/20 06:41:40;;;;;;;5.95;3.60;;;22.20;46.90;;;;;;6142345;28;80571;-62
2021/10/20 06:44:40;;;;;;;5.88;4.00;;;22.00;47.20;;;;;;6145787;28;80888;-62
2021/10/20 06:47:41;;;;;;;5.88;4.30;;;22.00;47.70;;;;;;6141019;28;81570;-60
2021/10/20 09:30:15;;;;;;;7.35;4.57;;;22.50;52.60;;;;;;6921391;23;83267;-73
2021/10/20 09:33:16;;;;;;;12.70;3.53;;;22.50;52.60;;;;;;6137935;28;80092;-71
2021/10/20 09:36:17;;;;;;;4.55;3.10;;;22.50;52.60;;;;;;6137384;28;80581;-75
2021/10/20 09:39:18;;;;;;;4.63;3.10;;;22.60;52.50;;;;;;6131617;28;80497;-72
2021/10/20 09:42:19;;;;;;;7.20;3.35;;;22.60;52.30;;;;;;6136635;28;80516;-76
2021/10/20 09:45:19;;;;;;;4.32;2.80;;;22.60;52.30;;;;;;6137150;28;80627;-73
2021/10/20 09:48:20;;;;;;;3.83;2.95;;;22.60;52.40;;;;;;6120356;28;80437;-73
2021/10/20 09:51:21;;;;;;;6.07;3.55;;;22.60;52.60;;;;;;6129501;28;83245;-75
2021/10/20 09:54:21;;;;;;;8.48;3.15;;;22.60;52.70;;;;;;6120368;28;81974;-72
2021/10/20 09:57:22;;;;;;;3.88;3.00;;;22.60;52.80;;;;;;6137850;28;80903;-72
2021/10/20 10:00:22;;;;;;;12.05;3.83;;;22.60;53.00;;;;;;6137900;28;81190;-70
2021/10/20 10:03:23;;;;;;;10.93;6.82;;;22.60;52.80;;;;;;6139403;28;80475;-71
2021/10/20 10:06:23;;;;;;;6.20;4.18;;;22.70;53.00;;;;;;6138872;28;81350;-70
2021/10/20 10:09:24;;;;;;;8.40;3.35;;;22.70;52.90;;;;;;6135909;28;81451;-70
2021/10/20 10:12:24;;;;;;;34.28;4.93;;;22.80;52.80;;;;;;6133768;28;80837;-69
2021/10/20 10:15:25;;;;;;;4.55;3.40;;;22.90;54.00;;;;;;6133061;28;80500;-71
2021/10/20 10:18:25;;;;;;;4.78;3.03;;;23.00;52.50;;;;;;6135635;28;80418;-71
2021/10/20 10:21:26;;;;;;;9.70;3.38;;;23.00;52.40;;;;;;6136377;28;81408;-73
2021/10/20 10:24:26;;;;;;;7.38;4.55;;;23.20;52.20;;;;;;6135456;28;82912;-69
2021/10/20 10:27:29;;;;;;;11.32;5.60;;;23.30;51.80;;;;;;6134528;28;80675;-76
2021/10/20 10:30:29;;;;;;;12.18;5.13;;;23.40;51.70;;;;;;6134489;28;81598;-72
2021/10/20 10:33:31;;;;;;;6.35;3.60;;;23.50;51.70;;;;;;6134980;28;80873;-75
2021/10/20 10:36:32;;;;;;;7.45;3.67;;;23.60;51.30;;;;;;6134965;28;80752;-68
2021/10/20 10:39:33;;;;;;;6.63;3.28;;;23.90;51.30;;;;;;6117178;28;80530;-72
2021/10/20 10:42:33;;;;;;;14.10;3.58;;;24.00;50.80;;;;;;6135487;28;80232;-69
2021/10/20 10:45:34;;;;;;;6.28;2.88;;;24.20;50.70;;;;;;6134588;28;80643;-72
2021/10/20 10:48:36;;;;;;;3.85;2.97;;;24.40;49.70;;;;;;6134000;28;81839;-73
2021/10/20 10:51:37;;;;;;;5.55;3.33;;;24.50;49.00;;;;;;6116043;28;81800;-69
2021/10/20 10:54:38;;;;;;;4.75;2.85;;;24.60;48.80;;;;;;6133209;28;80868;-68
2021/10/20 10:57:38;;;;;;;10.77;6.10;;;24.70;49.10;;;;;;6134858;28;81077;-66
2021/10/20 11:00:39;;;;;;;4.65;3.63;;;24.90;48.60;;;;;;6129134;28;80223;-70
2021/10/20 11:03:39;;;;;;;5.07;3.50;;;25.00;48.30;;;;;;6116876;28;82124;-69
2021/10/20 11:06:40;;;;;;;6.15;3.00;;;25.10;48.00;;;;;;6135047;28;80358;-68
2021/10/20 11:09:40;;;;;;;5.38;2.55;;;25.20;47.50;;;;;;6132529;28;80967;-67
2021/10/20 11:12:41;;;;;;;4.47;3.00;;;25.40;47.50;;;;;;6132021;28;80316;-69
2021/10/20 11:15:41;;;;;;;4.32;3.47;;;25.40;47.30;;;;;;6131702;28;81051;-68
2021/10/20 11:18:42;;;;;;;10.45;4.55;;;25.50;47.20;;;;;;6133734;28;81884;-69
2021/10/20 11:21:42;;;;;;;5.22;3.40;;;25.60;47.40;;;;;;6133863;28;80870;-69
2021/10/20 11:24:43;;;;;;;4.88;3.70;;;25.70;47.50;;;;;;6131190;28;80603;-71
2021/10/20 11:27:43;;;;;;;5.57;3.67;;;25.70;47.00;;;;;;6136436;28;80730;-67
2021/10/20 11:30:44;;;;;;;8.65;3.70;;;25.70;47.10;;;;;;6139179;28;80383;-67
2021/10/20 11:33:45;;;;;;;7.57;4.05;;;25.70;48.10;;;;;;6138461;28;81126;-69
2021/10/20 11:36:46;;;;;;;5.22;3.70;;;25.70;47.50;;;;;;6139629;28;80994;-67
2021/10/20 11:39:46;;;;;;;3.67;3.25;;;25.70;47.80;;;;;;6139764;28;80229;-67
2021/10/20 11:42:47;;;;;;;6.68;3.38;;;25.60;47.80;;;;;;6138921;28;80287;-69
2021/10/20 11:45:48;;;;;;;6.13;3.47;;;25.50;47.90;;;;;;6151330;28;80514;-69
2021/10/20 11:48:48;;;;;;;4.75;3.45;;;25.30;47.80;;;;;;6141951;28;80631;-70
2021/10/20 11:51:49;;;;;;;6.95;3.60;;;25.40;47.80;;;;;;6141511;28;80111;-70
2021/10/20 11:54:50;;;;;;;7.45;3.95;;;25.30;47.80;;;;;;6141255;28;80893;-70
2021/10/20 11:57:50;;;;;;;6.32;3.67;;;25.40;47.70;;;;;;6119632;28;80399;-73
2021/10/20 12:00:51;;;;;;;5.80;3.53;;;25.40;47.40;;;;;;6138976;28;80586;-70
2021/10/20 12:03:51;;;;;;;5.40;3.45;;;25.30;47.10;;;;;;6136949;28;80544;-71
2021/10/20 12:06:52;;;;;;;4.85;3.50;;;25.20;46.80;;;;;;6137846;28;80790;-69
2021/10/20 12:09:52;;;;;;;4.10;3.38;;;25.20;46.90;;;;;;6139855;28;80650;-72
2021/10/20 12:12:53;;;;;;;4.35;3.20;;;25.30;46.10;;;;;;6137941;28;80741;-69
2021/10/20 12:15:53;;;;;;;4.22;3.60;;;25.40;45.90;;;;;;6137270;28;81823;-70
2021/10/20 12:18:55;;;;;;;4.25;3.60;;;25.50;45.60;;;;;;6138283;28;80706;-70
2021/10/20 12:21:55;;;;;;;6.60;3.40;;;25.70;45.50;;;;;;6137591;28;80262;-72
2021/10/20 12:24:56;;;;;;;6.35;3.67;;;25.70;45.20;;;;;;6139607;28;80544;-70
2021/10/20 12:27:56;;;;;;;17.23;4.68;;;25.70;44.60;;;;;;6137802;28;81417;-70
2021/10/20 12:30:57;;;;;;;4.60;3.47;;;25.70;44.80;;;;;;6137411;28;80763;-70
2021/10/20 12:33:57;;;;;;;5.97;3.63;;;25.60;44.90;;;;;;6131364;28;82741;-70
2021/10/20 12:36:58;;;;;;;7.57;3.78;;;25.60;44.60;;;;;;6118858;28;80605;-70
2021/10/20 12:39:58;;;;;;;6.30;3.38;;;25.50;44.60;;;;;;6137403;28;80471;-70
2021/10/20 12:43:00;;;;;;;7.05;3.63;;;25.50;44.50;;;;;;6136645;28;81111;-70
2021/10/20 12:46:00;;;;;;;4.60;3.63;;;25.50;43.90;;;;;;6105686;28;83700;-70
2021/10/20 12:49:01;;;;;;;4.15;2.90;;;25.50;43.60;;;;;;6136443;28;80411;-70
2021/10/20 12:52:02;;;;;;;5.93;3.10;;;25.60;42.70;;;;;;6137344;28;80554;-70
2021/10/20 12:55:02;;;;;;;7.40;4.15;;;25.60;43.10;;;;;;6136499;28;81720;-70
2021/10/20 12:58:03;;;;;;;4.85;3.20;;;25.70;42.30;;;;;;6137510;28;80316;-70
2021/10/20 13:01:03;;;;;;;5.18;3.85;;;25.70;41.50;;;;;;6135835;28;80992;-70
2021/10/20 13:04:04;;;;;;;6.78;3.70;;;25.70;41.60;;;;;;6143141;28;80076;-70
2021/10/20 13:07:05;;;;;;;5.18;2.95;;;25.70;40.80;;;;;;6134473;28;81572;-69
2021/10/20 13:10:05;;;;;;;3.58;2.70;;;25.70;40.20;;;;;;6136228;28;82044;-69
2021/10/20 13:13:07;;;;;;;7.32;2.92;;;25.70;40.20;;;;;;6120544;28;83521;-70
2021/10/20 13:16:07;;;;;;;5.22;2.83;;;25.70;39.70;;;;;;6135858;28;80389;-70
2021/10/20 13:19:10;;;;;;;7.00;3.30;;;25.60;39.50;;;;;;6135617;28;81284;-70
2021/10/20 13:22:10;;;;;;;9.40;3.22;;;25.60;39.30;;;;;;6136980;28;80492;-70
2021/10/20 13:25:11;;;;;;;5.28;2.92;;;25.50;39.10;;;;;;6140986;28;81432;-69
2021/10/20 13:28:12;;;;;;;9.45;3.42;;;25.50;39.70;;;;;;6119056;28;83084;-70
2021/10/20 13:31:13;;;;;;;5.68;2.90;;;25.40;39.40;;;;;;6141225;28;81738;-70
2021/10/20 13:34:13;;;;;;;4.80;3.05;;;25.30;39.40;;;;;;6134532;28;80851;-70
2021/10/20 13:37:14;;;;;;;5.75;3.35;;;25.10;39.50;;;;;;6117090;28;81370;-70
2021/10/20 13:40:15;;;;;;;5.80;4.03;;;25.10;39.40;;;;;;6136203;28;80254;-70
2021/10/20 13:43:15;;;;;;;5.93;3.80;;;25.10;39.50;;;;;;6134811;28;82122;-70
2021/10/20 13:46:16;;;;;;;8.15;5.43;;;25.00;39.60;;;;;;6135362;28;80933;-70
2021/10/20 13:49:16;;;;;;;12.65;6.65;;;25.00;39.70;;;;;;6136542;28;80568;-70
2021/10/20 13:52:17;;;;;;;12.02;5.70;;;25.00;39.70;;;;;;6134315;28;82612;-70
2021/10/20 13:55:19;;;;;;;9.63;4.95;;;25.00;39.60;;;;;;6133422;28;80449;-70
2021/10/20 13:58:20;;;;;;;5.18;3.88;;;24.90;39.40;;;;;;6135397;28;80579;-70
2021/10/20 14:01:21;;;;;;;5.70;4.00;;;24.90;39.30;;;;;;6125830;28;88035;-69
2021/10/20 14:04:22;;;;;;;5.32;3.70;;;24.90;39.40;;;;;;6119214;28;81871;-69
2021/10/20 14:07:22;;;;;;;10.35;4.38;;;25.00;39.50;;;;;;6134506;28;81620;-72
2021/10/20 14:10:23;;;;;;;12.68;3.25;;;25.10;39.80;;;;;;6118793;28;81811;-66
2021/10/20 14:13:23;;;;;;;6.10;3.42;;;25.30;39.60;;;;;;6148875;28;80631;-71
2021/10/20 14:16:24;;;;;;;9.45;3.67;;;25.30;39.10;;;;;;6154043;28;80585;-70
2021/10/20 14:19:24;;;;;;;7.90;4.35;;;25.30;39.80;;;;;;6158816;28;80843;-69
2021/10/20 14:22:25;;;;;;;10.02;3.75;;;25.40;39.80;;;;;;6157901;28;80356;-69
2021/10/20 14:25:25;;;;;;;7.55;4.22;;;25.50;38.80;;;;;;6157414;28;80534;-70
2021/10/20 14:28:26;;;;;;;6.32;3.85;;;25.90;38.20;;;;;;6153840;28;80692;-69
2021/10/20 14:31:27;;;;;;;5.50;3.80;;;26.40;37.90;;;;;;6155482;28;81529;-70
2021/10/20 14:34:27;;;;;;;8.27;4.15;;;26.90;37.50;;;;;;6154976;28;82473;-70
2021/10/20 14:37:28;;;;;;;7.45;4.00;;;27.00;37.10;;;;;;6159230;28;80554;-71
2021/10/20 14:40:28;;;;;;;9.05;4.45;;;26.90;38.30;;;;;;6155911;28;81258;-70
2021/10/20 14:43:30;;;;;;;8.55;4.15;;;26.80;37.40;;;;;;6154349;28;80421;-70
2021/10/20 14:46:31;;;;;;;6.03;3.97;;;26.70;38.10;;;;;;6149957;28;81951;-70
2021/10/20 14:49:32;;;;;;;9.43;5.10;;;26.50;38.60;;;;;;6150907;28;82413;-70
2021/10/20 14:52:32;;;;;;;6.00;4.20;;;26.30;39.10;;;;;;6134836;28;81832;-69
2021/10/20 14:55:33;;;;;;;7.25;4.38;;;26.10;39.00;;;;;;6149476;28;80885;-75
2021/10/20 14:58:33;;;;;;;8.60;3.90;;;25.80;38.50;;;;;;6152467;28;80694;-72
2021/10/20 15:01:34;;;;;;;4.68;3.58;;;25.40;38.30;;;;;;6132867;28;81964;-70
2021/10/20 15:04:35;;;;;;;7.78;3.60;;;25.50;38.70;;;;;;6155250;28;80244;-70
2021/10/20 15:07:35;;;;;;;6.15;3.88;;;25.50;38.90;;;;;;6140143;28;80948;-71
2021/10/20 15:10:36;;;;;;;9.95;4.20;;;25.50;39.00;;;;;;6153158;28;80301;-70
2021/10/20 15:13:36;;;;;;;4.78;3.47;;;25.30;38.80;;;;;;6153293;28;80950;-70
2021/10/20 15:16:37;;;;;;;5.03;3.85;;;25.30;39.20;;;;;;6134455;28;81398;-69
2021/10/20 15:19:49;;;;;;;7.93;3.55;;;25.20;39.30;;;;;;6154165;28;81739;-69
2021/10/20 15:22:50;;;;;;;6.50;3.80;;;25.10;39.10;;;;;;6156079;28;81987;-69
2021/10/20 15:25:50;;;;;;;5.78;4.03;;;25.00;39.80;;;;;;6159598;28;80375;-70
2021/10/20 15:28:51;;;;;;;6.93;4.32;;;25.00;39.20;;;;;;6153406;28;81131;-68
2021/10/20 15:31:51;;;;;;;8.85;4.63;;;24.90;39.30;;;;;;6160033;28;81044;-70
2021/10/20 15:34:52;;;;;;;6.47;3.65;;;25.00;39.40;;;;;;6155233;28;80415;-70
2021/10/20 15:37:53;;;;;;;6.55;4.25;;;24.90;39.50;;;;;;6157354;28;80855;-71
2021/10/20 15:40:53;;;;;;;9.40;4.80;;;24.80;39.40;;;;;;6149908;28;81743;-72
2021/10/20 15:43:54;;;;;;;11.02;4.47;;;24.70;39.10;;;;;;6153085;28;80061;-69
2021/10/20 15:46:55;;;;;;;12.10;4.38;;;24.60;39.00;;;;;;6154304;28;80751;-66
2021/10/20 15:49:57;;;;;;;8.35;4.50;;;24.60;39.40;;;;;;6155681;28;80783;-69
2021/10/20 15:52:57;;;;;;;8.52;3.92;;;24.70;39.30;;;;;;6152010;28;80331;-69
2021/10/20 15:55:58;;;;;;;4.63;3.20;;;24.60;39.10;;;;;;6159726;28;81569;-69
2021/10/20 15:58:58;;;;;;;8.98;3.70;;;24.60;39.00;;;;;;6157936;28;80945;-70
2021/10/20 16:01:59;;;;;;;18.70;4.53;;;24.50;38.60;;;;;;6154437;28;80999;-70
2021/10/20 16:05:00;;;;;;;8.18;3.97;;;24.50;38.40;;;;;;6159292;28;81289;-70
2021/10/20 16:08:00;;;;;;;6.22;4.05;;;24.40;37.90;;;;;;6152018;28;81977;-70
2021/10/20 16:11:02;;;;;;;12.18;4.15;;;24.30;38.30;;;;;;6158161;28;81418;-69
2021/10/20 16:14:03;;;;;;;4.10;3.45;;;24.40;38.80;;;;;;6159895;28;80642;-69
2021/10/20 16:17:03;;;;;;;9.13;3.78;;;24.50;38.70;;;;;;6156996;28;81398;-69
2021/10/20 16:20:04;;;;;;;8.60;3.85;;;24.60;38.90;;;;;;6159536;28;81675;-69
2021/10/20 16:23:04;;;;;;;7.05;4.05;;;24.70;38.80;;;;;;6162376;28;80510;-69
2021/10/20 16:26:06;;;;;;;7.80;3.72;;;24.70;39.30;;;;;;6146385;28;81270;-68
2021/10/20 16:29:06;;;;;;;5.47;3.65;;;24.80;39.90;;;;;;6161458;28;80597;-67
2021/10/20 16:32:07;;;;;;;6.00;3.58;;;24.80;40.20;;;;;;6158303;28;81032;-67
2021/10/20 16:35:07;;;;;;;6.32;3.65;;;24.80;40.80;;;;;;6138980;28;81659;-66
2021/10/20 16:38:08;;;;;;;9.68;4.18;;;24.90;41.10;;;;;;6159640;28;80852;-68
2021/10/20 16:41:09;;;;;;;10.40;3.90;;;24.90;40.90;;;;;;6159323;28;81774;-71
2021/10/20 16:44:10;;;;;;;10.43;3.58;;;24.90;41.30;;;;;;6157172;28;80573;-68
2021/10/20 16:47:12;;;;;;;6.95;3.97;;;24.90;41.40;;;;;;6158052;28;81404;-68
2021/10/20 16:50:12;;;;;;;8.20;3.63;;;24.90;41.80;;;;;;6157180;28;80478;-68
2021/10/20 16:53:13;;;;;;;8.45;3.50;;;24.90;41.60;;;;;;6151924;28;80361;-68
2021/10/20 16:56:13;;;;;;;4.80;3.40;;;24.90;42.10;;;;;;6159553;28;80728;-70
2021/10/20 16:59:14;;;;;;;7.28;3.75;;;24.90;42.00;;;;;;6158780;28;81329;-69
2021/10/20 17:02:14;;;;;;;8.32;3.33;;;24.90;42.20;;;;;;6144177;28;80630;-69
2021/10/20 17:05:15;;;;;;;6.45;3.47;;;24.90;42.80;;;;;;6167343;28;80641;-68
2021/10/20 17:08:15;;;;;;;5.55;3.65;;;24.90;42.40;;;;;;6163154;28;87043;-69
2021/10/20 17:11:16;;;;;;;8.48;3.35;;;24.90;43.30;;;;;;6142517;28;80490;-66
2021/10/20 17:14:17;;;;;;;6.53;3.45;;;24.90;42.70;;;;;;6160137;28;81738;-69
2021/10/20 17:17:17;;;;;;;5.80;3.30;;;24.90;43.20;;;;;;6159282;28;80529;-71
2021/10/20 17:20:18;;;;;;;5.05;3.45;;;25.00;43.10;;;;;;6159416;28;82184;-63
2021/10/20 17:23:18;;;;;;;10.02;4.05;;;25.00;43.50;;;;;;6159747;28;80793;-71
2021/10/20 17:26:19;;;;;;;10.95;3.83;;;25.00;43.10;;;;;;6159574;28;80388;-72
2021/10/20 17:29:19;;;;;;;5.30;3.28;;;24.90;42.60;;;;;;6141408;28;83569;-70
2021/10/20 17:32:20;;;;;;;6.53;3.20;;;24.90;42.30;;;;;;6159206;28;80115;-70
2021/10/20 17:35:20;;;;;;;5.85;3.50;;;24.90;42.30;;;;;;6156264;28;80454;-72
2021/10/20 17:38:21;;;;;;;8.85;3.22;;;24.90;42.40;;;;;;6155289;28;81869;-70
2021/10/20 17:41:21;;;;;;;5.25;3.25;;;24.90;41.90;;;;;;6161902;28;81695;-70
2021/10/20 17:44:22;;;;;;;6.50;3.05;;;24.90;41.70;;;;;;6158657;28;80458;-72
2021/10/20 17:47:22;;;;;;;5.53;2.88;;;24.90;41.80;;;;;;6159535;28;80647;-73
2021/10/20 17:50:23;;;;;;;3.78;2.58;;;24.90;41.90;;;;;;6159215;28;80671;-72
2021/10/20 17:53:23;;;;;;;4.90;3.42;;;24.90;41.50;;;;;;6158683;28;81360;-70
2021/10/20 17:56:24;;;;;;;5.70;3.53;;;24.90;41.60;;;;;;6152709;28;80958;-72
2021/10/20 17:59:24;;;;;;;6.72;3.25;;;24.90;41.60;;;;;;6154946;28;81193;-75
2021/10/20 18:02:25;;;;;;;7.72;3.45;;;24.90;41.70;;;;;;6145922;28;82324;-74
2021/10/20 18:05:26;;;;;;;7.93;3.55;;;24.90;41.70;;;;;;6151441;28;80952;-74
2021/10/20 18:08:30;;;;;;;5.97;3.60;;;24.90;42.10;;;;;;6157805;28;80618;-74
2021/10/20 18:11:30;;;;;;;5.47;3.25;;;24.90;41.90;;;;;;6156449;28;82412;-75
2021/10/20 18:14:31;;;;;;;4.03;3.22;;;24.90;41.80;;;;;;6157276;28;80059;-74
2021/10/20 18:17:31;;;;;;;6.25;3.58;;;24.90;42.80;;;;;;6160687;28;80932;-74